Time;durP1;ratioP1;P1;durP2;ratioP2;P2;SDS_P1;SDS_P2;PMS_P1;PMS_P2;Temp;Humidity;BMP_temperature;BMP_pressure;BME280_temperature;BME280_humidity;BME280_pressure;Samples;Min_cycle;Max_cycle;Signal;HPM_P1;HPM_P2
2022/01/23 00:00:35;;;;;;;;;;;;;;;2.29;75.31;101386.59;4978329;28;19952;-89
2022/01/23 00:03:06;;;;;;;;;;;;;;;2.35;75.40;101382.31;4981789;28;20005;-88
2022/01/23 00:05:42;;;;;;;;;;;;;;;2.35;75.53;101387.56;4980594;28;19974;-88
2022/01/23 00:08:08;;;;;;;;;;;;;;;2.38;75.50;101385.84;4978312;28;20407;-91
2022/01/23 00:10:34;;;;;;;;;;;;;;;2.32;75.47;101384.88;4979099;28;20134;-88
2022/01/23 00:18:21;;;;;;;;;;;;;;;2.39;75.57;101387.63;4979358;28;19992;-88
2022/01/23 00:20:47;;;;;;;;;;;;;;;2.39;75.50;101391.09;4962583;28;19922;-87
2022/01/23 00:23:28;;;;;;;;;;;;;;;2.42;75.20;101395.50;4978402;28;19932;-90
2022/01/23 00:31:23;;;;;;;;;;;;;;;2.46;75.07;101392.09;4983080;28;19942;-92
2022/01/23 00:33:54;;;;;;;;;;;;;;;2.49;74.87;101392.13;4980457;28;19961;-91
2022/01/23 00:36:19;;;;;;;;;;;;;;;2.50;75.01;101397.38;4977764;28;20077;-87
2022/01/23 00:38:44;;;;;;;;;;;;;;;2.51;75.18;101399.16;4980051;28;19918;-90
2022/01/23 00:41:10;;;;;;;;;;;;;;;2.54;75.11;101401.81;4977592;28;20005;-88
2022/01/23 00:43:40;;;;;;;;;;;;;;;2.59;75.14;101399.28;4977170;28;20021;-91
2022/01/23 00:46:21;;;;;;;;;;;;;;;2.58;75.06;101397.50;4978437;28;20360;-90
2022/01/23 00:51:21;;;;;;;;;;;;;;;2.66;75.23;101388.03;4974765;28;20278;-93
2022/01/23 00:53:46;;;;;;;;;;;;;;;2.86;76.29;101387.47;4984213;28;19922;-90
2022/01/23 00:56:11;;;;;;;;;;;;;;;3.06;78.18;101393.88;4980123;28;19933;-90
2022/01/23 00:58:36;;;;;;;;;;;;;;;3.18;79.96;101385.28;4977188;28;19937;-89
2022/01/23 01:01:02;;;;;;;;;;;;;;;3.29;81.54;101385.41;4996010;28;19924;-92
2022/01/23 01:03:28;;;;;;;;;;;;;;;3.31;82.92;101378.44;4995134;28;19924;-90
2022/01/23 01:05:54;;;;;;;;;;;;;;;3.34;84.19;101377.63;4969280;28;19925;-91
2022/01/23 01:08:19;;;;;;;;;;;;;;;3.35;85.39;101367.16;4991951;28;20384;-89
2022/01/23 01:11:10;;;;;;;;;;;;;;;3.33;86.25;101366.25;4978929;28;19918;-89
2022/01/23 01:13:51;;;;;;;;;;;;;;;3.27;87.36;101366.16;4996687;28;19918;-88
2022/01/23 01:16:39;;;;;;;;;;;;;;;3.23;88.54;101364.38;4995166;28;19918;-88
2022/01/23 01:31:08;;;;;;;;;;;;;;;3.15;93.97;101372.13;4998156;28;19955;-86
2022/01/23 01:33:18;;;;;;;;;;;;;;;3.15;95.34;101355.56;4983782;28;19925;-86
2022/01/23 01:35:56;;;;;;;;;;;;;;;3.26;97.23;101353.94;4998006;28;19918;-87
2022/01/23 01:38:23;;;;;;;;;;;;;;;3.47;99.75;101357.69;4995691;28;19922;-88
2022/01/23 01:40:49;;;;;;;;;;;;;;;3.70;100.00;101356.19;4984844;28;19949;-91
2022/01/23 01:43:14;;;;;;;;;;;;;;;3.89;100.00;101354.59;4983538;28;19929;-85
2022/01/23 01:45:42;;;;;;;;;;;;;;;4.02;100.00;101353.00;5001913;28;19918;-87
2022/01/23 01:48:08;;;;;;;;;;;;;;;4.13;100.00;101356.59;5002263;28;19918;-89
2022/01/23 01:50:34;;;;;;;;;;;;;;;4.25;100.00;101360.19;5000181;28;20315;-93
2022/01/23 01:53:00;;;;;;;;;;;;;;;4.31;100.00;101357.63;5003223;28;19914;-94
2022/01/23 01:55:29;;;;;;;;;;;;;;;4.39;100.00;101355.03;4980108;28;20070;-91
2022/01/23 04:33:43;;;;;;;;;;;;;;;3.33;95.33;101345.28;5006404;28;19921;-93
2022/01/23 05:00:36;;;;;;;;;;;;;;;2.98;93.70;101358.81;4994596;28;20044;-88
2022/01/23 05:05:48;;;;;;;;;;;;;;;2.85;93.41;101341.19;4995289;28;19925;-90
2022/01/23 05:08:18;;;;;;;;;;;;;;;2.77;93.46;101342.81;4993437;28;19918;-88
2022/01/23 05:10:43;;;;;;;;;;;;;;;2.73;93.18;101340.16;4994993;28;19929;-91
2022/01/23 05:13:09;;;;;;;;;;;;;;;2.80;93.05;101354.22;4995480;28;20292;-94
2022/01/23 05:15:35;;;;;;;;;;;;;;;2.73;92.88;101340.16;4985312;28;19918;-92
2022/01/23 05:18:01;;;;;;;;;;;;;;;2.74;92.58;101343.66;4995714;28;19922;-88
2022/01/23 05:20:28;;;;;;;;;;;;;;;2.66;92.56;101346.16;4995205;28;20444;-87
2022/01/23 05:22:59;;;;;;;;;;;;;;;2.77;93.60;101338.47;4995022;28;19922;-89
2022/01/23 05:25:28;;;;;;;;;;;;;;;2.68;94.46;101339.22;5013734;28;19917;-88
2022/01/23 05:27:54;;;;;;;;;;;;;;;2.66;95.17;101346.16;5014097;28;20357;-90
2022/01/23 05:30:20;;;;;;;;;;;;;;;2.66;95.32;101348.78;5013034;28;19921;-91
2022/01/23 05:32:45;;;;;;;;;;;;;;;2.65;95.71;101354.88;5014161;28;19940;-93
2022/01/23 05:35:12;;;;;;;;;;;;;;;2.62;95.61;101351.34;4995763;28;19948;-87
2022/01/23 05:37:38;;;;;;;;;;;;;;;2.62;95.46;101349.59;5012772;28;19972;-88
2022/01/23 05:40:04;;;;;;;;;;;;;;;2.52;95.40;101348.59;5013817;28;19921;-88
2022/01/23 05:42:29;;;;;;;;;;;;;;;2.50;95.38;101355.50;5013452;28;19917;-88
2022/01/23 05:44:55;;;;;;;;;;;;;;;2.53;95.39;101354.69;5013069;28;20284;-87
2022/01/23 05:47:20;;;;;;;;;;;;;;;2.57;95.16;101358.22;5013625;28;19918;-87
2022/01/23 05:49:45;;;;;;;;;;;;;;;2.45;94.91;101354.56;5013833;28;20330;-90
2022/01/23 05:52:10;;;;;;;;;;;;;;;2.44;94.79;101359.78;4993242;28;19928;-88
2022/01/23 05:54:36;;;;;;;;;;;;;;;2.44;94.43;101349.31;5013563;28;19972;-89
2022/01/23 13:58:03;;;;;;;;;;;;;;;4.33;100.00;101309.50;4982189;28;19967;-87
2022/01/23 14:00:29;;;;;;;;;;;;;;;4.38;100.00;101308.66;4965517;28;19914;-86
2022/01/23 14:02:55;;;;;;;;;;;;;;;4.42;100.00;101308.72;4986264;28;19918;-87
2022/01/23 14:05:22;;;;;;;;;;;;;;;4.49;100.00;101310.47;4985720;28;19922;-91
2022/01/23 14:07:50;;;;;;;;;;;;;;;4.55;100.00;101307.03;4984523;28;19975;-90
2022/01/23 14:10:18;;;;;;;;;;;;;;;4.62;100.00;101305.31;4983676;28;19922;-86
2022/01/23 14:12:45;;;;;;;;;;;;;;;4.66;100.00;101300.09;4983976;28;19924;-87
2022/01/23 14:15:21;;;;;;;;;;;;;;;4.69;100.00;101307.09;4984644;28;19937;-87
2022/01/23 14:17:57;;;;;;;;;;;;;;;4.75;100.00;101306.25;4982842;28;20021;-86
2022/01/23 14:20:23;;;;;;;;;;;;;;;4.79;100.00;101305.41;4966326;28;20024;-86
2022/01/23 14:22:48;;;;;;;;;;;;;;;4.86;100.00;101308.06;4984615;28;20329;-89
2022/01/23 14:25:18;;;;;;;;;;;;;;;4.86;100.00;101308.06;4982698;28;20008;-87
2022/01/23 14:28:04;;;;;;;;;;;;;;;3.89;100.00;101314.41;4983981;28;19929;-88
2022/01/23 14:30:30;;;;;;;;;;;;;;;3.38;100.00;101309.56;4983069;28;19922;-89
2022/01/23 14:33:03;;;;;;;;;;;;;;;3.15;100.00;101308.41;4967856;28;20385;-93
2022/01/23 14:35:30;;;;;;;;;;;;;;;3.07;100.00;101308.31;4970816;28;20443;-86
2022/01/23 14:38:28;;;;;;;;;;;;;;;2.97;100.00;101299.47;4988250;28;19917;-92
2022/01/23 14:41:00;;;;;;;;;;;;;;;2.83;100.00;101301.03;4950756;28;19925;-88
2022/01/23 14:43:38;;;;;;;;;;;;;;;2.77;99.29;101307.03;4984652;28;19965;-86
2022/01/23 14:46:05;;;;;;;;;;;;;;;2.70;98.00;101308.69;4984136;28;19933;-85
2022/01/23 14:48:36;;;;;;;;;;;;;;;2.63;97.00;101308.59;4984595;28;20372;-85
2022/01/23 14:51:04;;;;;;;;;;;;;;;2.57;96.21;101317.25;4985079;28;20381;-86
2022/01/23 14:53:29;;;;;;;;;;;;;;;2.56;95.37;101312.88;4967182;28;19957;-85
2022/01/23 14:55:56;;;;;;;;;;;;;;;2.50;94.68;101308.41;4977706;28;19929;-90
2022/01/23 14:58:22;;;;;;;;;;;;;;;2.48;93.98;101302.28;4988512;28;20373;-93
2022/01/23 15:00:53;;;;;;;;;;;;;;;2.41;93.36;101312.63;4991408;28;20009;-89
2022/01/23 15:03:18;;;;;;;;;;;;;;;2.43;92.71;101303.09;4984331;28;20336;-92
2022/01/23 15:05:45;;;;;;;;;;;;;;;2.35;92.22;101308.22;4987509;28;20206;-90
2022/01/23 15:08:13;;;;;;;;;;;;;;;2.31;91.74;101302.06;4990130;28;19945;-85
2022/01/23 15:10:39;;;;;;;;;;;;;;;2.30;91.50;101305.50;4988196;28;20328;-85
2022/01/23 15:13:06;;;;;;;;;;;;;;;2.21;90.85;101300.13;4989053;28;19914;-90
2022/01/23 15:15:31;;;;;;;;;;;;;;;2.13;90.57;101300.00;4986657;28;19918;-89
2022/01/23 15:17:57;;;;;;;;;;;;;;;2.10;90.12;101296.47;4982427;28;19992;-86
2022/01/23 15:20:22;;;;;;;;;;;;;;;2.08;89.87;101296.44;4983484;28;19937;-86
2022/01/23 15:22:47;;;;;;;;;;;;;;;2.05;89.49;101292.91;4986718;28;20278;-85
2022/01/23 15:25:14;;;;;;;;;;;;;;;2.03;88.93;101292.88;4986344;28;19969;-90
2022/01/23 15:27:40;;;;;;;;;;;;;;;1.95;88.56;101295.38;4991555;28;19933;-88
2022/01/23 15:30:06;;;;;;;;;;;;;;;1.94;88.41;101301.44;4987201;28;20876;-94
2022/01/23 15:32:32;;;;;;;;;;;;;;;1.91;88.10;101293.56;4985315;28;20009;-84
2022/01/23 15:34:57;;;;;;;;;;;;;;;1.86;87.67;101294.34;4988268;28;19988;-94
2022/01/23 15:37:22;;;;;;;;;;;;;;;1.79;87.61;101291.63;4988782;28;20008;-92
2022/01/23 15:39:48;;;;;;;;;;;;;;;1.83;87.43;101297.78;4986191;28;20489;-88
2022/01/23 15:42:13;;;;;;;;;;;;;;;1.82;87.35;101290.81;4987572;28;19977;-89
2022/01/23 15:44:40;;;;;;;;;;;;;;;1.79;87.24;101291.63;4985974;28;19944;-92
2022/01/23 15:47:05;;;;;;;;;;;;;;;1.75;87.16;101294.16;4986294;28;19918;-85
2022/01/23 15:49:31;;;;;;;;;;;;;;;1.74;87.05;101292.38;4988511;28;19925;-85
2022/01/23 15:51:56;;;;;;;;;;;;;;;1.69;86.79;101287.09;4985494;28;19926;-89
2022/01/23 15:54:21;;;;;;;;;;;;;;;1.71;86.50;101294.94;4981203;28;19922;-90
2022/01/23 15:56:48;;;;;;;;;;;;;;;1.70;86.25;101286.22;4985004;28;20032;-91
2022/01/23 15:59:15;;;;;;;;;;;;;;;1.63;86.40;101292.22;4985306;28;20288;-88
2022/01/23 16:01:40;;;;;;;;;;;;;;;1.62;86.01;101290.44;4981804;28;20476;-89
2022/01/23 16:04:06;;;;;;;;;;;;;;;1.58;86.10;101286.91;4981532;28;20000;-91
2022/01/23 16:06:31;;;;;;;;;;;;;;;1.56;86.02;101283.38;4983249;28;20266;-89
2022/01/23 16:08:56;;;;;;;;;;;;;;;1.53;85.77;101283.34;4983044;28;19928;-87
2022/01/23 16:11:22;;;;;;;;;;;;;;;1.51;85.67;101285.03;4985172;28;20012;-88
2022/01/23 16:13:47;;;;;;;;;;;;;;;1.55;85.76;101284.25;4982727;28;19943;-86
2022/01/23 16:16:12;;;;;;;;;;;;;;;1.56;85.84;101288.59;4983674;28;20029;-91
2022/01/23 16:18:38;;;;;;;;;;;;;;;1.52;85.73;101278.94;4985527;28;19969;-89
2022/01/23 16:21:03;;;;;;;;;;;;;;;1.45;85.70;101287.53;4985513;28;19925;-92
2022/01/23 16:23:29;;;;;;;;;;;;;;;1.41;85.52;101278.75;4983812;28;19981;-91
2022/01/23 16:25:54;;;;;;;;;;;;;;;1.41;85.71;101277.88;4982343;28;20388;-86
2022/01/23 16:28:20;;;;;;;;;;;;;;;1.38;85.56;101283.03;4984264;28;20329;-92
2022/01/23 16:30:48;;;;;;;;;;;;;;;1.35;85.44;101278.63;4986056;28;19918;-87
2022/01/23 16:33:13;;;;;;;;;;;;;;;1.40;85.08;101279.59;4987197;28;19918;-90
2022/01/23 16:35:39;;;;;;;;;;;;;;;1.33;84.94;101280.34;4985281;28;20417;-90
2022/01/23 16:38:04;;;;;;;;;;;;;;;1.31;84.97;101289.00;4986808;28;19925;-90
2022/01/23 16:40:29;;;;;;;;;;;;;;;1.34;85.16;101286.44;4983105;28;20329;-87
2022/01/23 16:42:55;;;;;;;;;;;;;;;1.29;85.09;101294.19;4984127;28;19922;-87
2022/01/23 16:45:21;;;;;;;;;;;;;;;1.36;84.92;101296.06;4985529;28;19929;-86
2022/01/23 16:47:47;;;;;;;;;;;;;;;1.33;84.79;101290.78;4985540;28;19918;-88
2022/01/23 16:50:13;;;;;;;;;;;;;;;1.35;84.78;101294.31;4983875;28;19933;-86
2022/01/23 16:52:38;;;;;;;;;;;;;;;1.34;84.89;101286.44;4984667;28;19918;-90
2022/01/23 16:55:04;;;;;;;;;;;;;;;1.25;85.01;101290.63;4982994;28;19926;-89
2022/01/23 16:57:29;;;;;;;;;;;;;;;1.32;84.74;101293.38;4981032;28;19969;-85
2022/01/23 16:59:54;;;;;;;;;;;;;;;1.31;84.61;101281.16;4982172;28;20381;-86
2022/01/23 17:02:19;;;;;;;;;;;;;;;1.26;84.50;101289.81;4982596;28;19968;-89
2022/01/23 17:04:45;;;;;;;;;;;;;;;1.18;84.41;101291.38;4981317;28;19922;-91
2022/01/23 17:07:10;;;;;;;;;;;;;;;1.27;84.34;101286.31;4984743;28;19995;-89
2022/01/23 17:09:37;;;;;;;;;;;;;;;1.26;84.25;101289.81;4982163;28;19921;-92
2022/01/23 17:12:03;;;;;;;;;;;;;;;1.27;83.92;101291.53;4988766;28;19918;-88
2022/01/23 17:14:28;;;;;;;;;;;;;;;1.26;83.81;101286.28;4982488;28;19918;-90
2022/01/23 17:16:54;;;;;;;;;;;;;;;1.18;83.55;101286.16;4980497;28;19922;-89
2022/01/23 17:19:19;;;;;;;;;;;;;;;1.16;83.77;101289.59;4983814;28;19918;-87
2022/01/23 17:21:45;;;;;;;;;;;;;;;1.22;83.83;101281.88;4985099;28;20284;-86
2022/01/23 17:24:10;;;;;;;;;;;;;;;1.23;83.86;101273.22;4982585;28;19913;-90
2022/01/23 17:26:35;;;;;;;;;;;;;;;1.20;83.77;101281.84;4982692;28;19961;-90
2022/01/23 17:29:01;;;;;;;;;;;;;;;1.16;83.67;101284.38;4983451;28;20289;-87
2022/01/23 17:31:26;;;;;;;;;;;;;;;1.18;83.75;101280.94;4984759;28;20118;-93
2022/01/23 17:33:51;;;;;;;;;;;;;;;1.16;83.27;101284.38;4983393;28;20012;-90
2022/01/23 17:36:16;;;;;;;;;;;;;;;1.17;83.54;101283.53;4985186;28;19929;-90
2022/01/23 17:38:42;;;;;;;;;;;;;;;1.14;83.57;101284.34;4985619;28;19918;-88
2022/01/23 17:41:07;;;;;;;;;;;;;;;1.14;83.53;101283.47;4982189;28;19918;-86
2022/01/23 17:43:32;;;;;;;;;;;;;;;1.15;83.56;101280.88;4979634;28;19929;-89
2022/01/23 17:46:00;;;;;;;;;;;;;;;1.16;83.57;101284.38;4986735;28;19922;-89
2022/01/23 17:51:01;;;;;;;;;;;;;;;1.09;83.12;101280.75;4983822;28;19918;-88
2022/01/23 17:53:27;;;;;;;;;;;;;;;1.12;83.10;101275.59;4984135;28;20262;-90
2022/01/23 17:55:52;;;;;;;;;;;;;;;1.06;82.96;101276.34;4977249;28;19965;-87
2022/01/23 17:58:17;;;;;;;;;;;;;;;1.13;82.87;101272.13;4980333;28;20541;-87
2022/01/23 18:00:43;;;;;;;;;;;;;;;1.10;82.94;101272.06;4980646;28;20369;-86
2022/01/23 18:03:14;;;;;;;;;;;;;;;1.07;83.01;101280.72;4982229;28;20325;-89
2022/01/23 18:05:41;;;;;;;;;;;;;;;1.08;82.90;101273.75;4981637;28;19919;-88
2022/01/23 18:08:06;;;;;;;;;;;;;;;1.09;82.82;101270.31;4983148;28;19929;-88
2022/01/23 18:10:31;;;;;;;;;;;;;;;1.06;82.64;101278.09;4982958;28;19922;-90
2022/01/23 18:12:57;;;;;;;;;;;;;;;1.06;82.50;101280.69;4985024;28;19930;-87
2022/01/23 18:15:23;;;;;;;;;;;;;;;1.07;82.66;101283.34;4982955;28;19925;-87
2022/01/23 18:17:48;;;;;;;;;;;;;;;1.05;82.90;101281.53;4981384;28;19973;-89
2022/01/23 18:20:14;;;;;;;;;;;;;;;1.02;82.45;101278.88;4984550;28;20141;-86
2022/01/23 18:22:39;;;;;;;;;;;;;;;1.04;82.38;101278.06;4983721;28;19919;-89
2022/01/23 18:25:05;;;;;;;;;;;;;;;1.01;82.40;101285.81;4982688;28;19918;-88
2022/01/23 18:27:30;;;;;;;;;;;;;;;0.97;82.44;101289.22;4983950;28;19921;-90
2022/01/23 18:29:56;;;;;;;;;;;;;;;1.01;82.50;101296.25;4983175;28;20001;-87
2022/01/23 18:32:21;;;;;;;;;;;;;;;1.03;82.35;101286.72;4981799;28;20016;-86
2022/01/23 18:34:47;;;;;;;;;;;;;;;1.00;82.01;101291.00;4982626;28;19992;-88
2022/01/23 18:37:14;;;;;;;;;;;;;;;1.05;81.72;101295.50;4980964;28;19922;-87
2022/01/23 18:39:41;;;;;;;;;;;;;;;0.99;81.75;101289.25;4983083;28;19922;-89
2022/01/23 18:42:06;;;;;;;;;;;;;;;0.99;82.01;101287.53;4996817;28;19926;-86
2022/01/23 18:44:32;;;;;;;;;;;;;;;1.01;81.75;101285.81;4981344;28;20883;-86
2022/01/23 18:46:57;;;;;;;;;;;;;;;1.03;81.88;101284.13;4981744;28;19922;-87
2022/01/23 18:49:23;;;;;;;;;;;;;;;1.01;82.07;101282.34;4981113;28;20288;-89
2022/01/23 18:51:54;;;;;;;;;;;;;;;1.01;81.90;101282.34;4984650;28;19918;-90
2022/01/23 18:54:28;;;;;;;;;;;;;;;1.00;81.72;101278.81;4982091;28;20392;-90
2022/01/23 18:57:01;;;;;;;;;;;;;;;0.99;81.31;101276.19;4984200;28;19926;-86
2022/01/23 18:59:28;;;;;;;;;;;;;;;0.95;81.18;101277.00;4983412;28;20008;-92
2022/01/23 19:01:57;;;;;;;;;;;;;;;1.01;81.33;101283.22;4964693;28;19927;-88
2022/01/23 19:04:25;;;;;;;;;;;;;;;0.94;81.21;101280.44;4983351;28;20333;-90
2022/01/23 19:07:00;;;;;;;;;;;;;;;0.98;81.08;101279.66;4962355;28;19929;-86
2022/01/23 19:09:30;;;;;;;;;;;;;;;0.96;80.82;101273.50;4983084;28;20017;-89
2022/01/23 19:11:57;;;;;;;;;;;;;;;0.96;80.97;101283.94;4965263;28;20298;-91
2022/01/23 19:14:23;;;;;;;;;;;;;;;0.98;80.76;101285.75;4981570;28;20449;-87
2022/01/23 19:16:49;;;;;;;;;;;;;;;0.97;80.91;101288.34;4982989;28;20001;-86
2022/01/23 19:19:14;;;;;;;;;;;;;;;1.04;80.57;101274.56;4965572;28;19984;-88
2022/01/23 19:21:40;;;;;;;;;;;;;;;0.94;80.48;101285.66;4980655;28;19966;-86
2022/01/23 19:24:05;;;;;;;;;;;;;;;0.99;80.55;101284.03;4964082;28;19926;-87
2022/01/23 19:26:30;;;;;;;;;;;;;;;0.95;80.39;101284.81;4978702;28;20453;-87
2022/01/23 19:28:56;;;;;;;;;;;;;;;0.98;80.10;101279.66;4980946;28;19922;-88
2022/01/23 19:31:23;;;;;;;;;;;;;;;0.96;79.99;101287.47;4964902;28;19925;-86
2022/01/23 19:33:48;;;;;;;;;;;;;;;0.96;79.91;101283.94;4981355;28;19914;-89
2022/01/23 19:36:14;;;;;;;;;;;;;;;0.94;80.04;101289.13;4982732;28;19921;-87
2022/01/23 19:38:39;;;;;;;;;;;;;;;0.95;79.79;101290.03;4963281;28;19924;-85
2022/01/23 19:46:14;;;;;;;;;;;;;;;0.94;79.30;101290.88;4973221;28;19930;-85
2022/01/23 19:48:47;;;;;;;;;;;;;;;0.95;79.36;101292.66;4981127;28;20369;-87
2022/01/23 19:51:12;;;;;;;;;;;;;;;0.90;79.28;101280.38;4960679;28;20017;-86
2022/01/23 19:53:37;;;;;;;;;;;;;;;0.93;79.32;101290.00;4977338;28;20126;-85
2022/01/23 19:56:02;;;;;;;;;;;;;;;0.97;79.20;101290.94;4972082;28;19936;-87
2022/01/23 19:58:28;;;;;;;;;;;;;;;0.97;79.10;101286.59;4980454;28;19940;-87
2022/01/23 20:00:55;;;;;;;;;;;;;;;0.89;79.07;101294.28;4974544;28;19917;-85
2022/01/23 20:03:20;;;;;;;;;;;;;;;0.97;78.94;101296.16;4981953;28;19925;-86
2022/01/23 20:05:48;;;;;;;;;;;;;;;0.95;78.89;101290.03;4985848;28;20292;-85
2022/01/23 20:08:14;;;;;;;;;;;;;;;0.95;78.83;101287.44;4985877;28;19925;-87
2022/01/23 20:13:04;;;;;;;;;;;;;;;0.92;78.79;101290.84;4985580;28;20507;-85
2022/01/23 20:15:31;;;;;;;;;;;;;;;0.98;78.80;101288.38;4984495;28;19918;-85
2022/01/23 20:17:57;;;;;;;;;;;;;;;1.04;78.39;101283.28;4987831;28;19922;-87
2022/01/23 20:20:22;;;;;;;;;;;;;;;0.95;78.39;101288.31;4985066;28;19922;-88
2022/01/23 20:22:48;;;;;;;;;;;;;;;0.99;78.41;101289.25;4982831;28;19941;-88
2022/01/23 20:25:13;;;;;;;;;;;;;;;1.02;78.28;101284.09;4984873;28;20309;-91
2022/01/23 20:27:40;;;;;;;;;;;;;;;0.99;78.02;101290.13;4985142;28;20269;-85
2022/01/23 20:30:06;;;;;;;;;;;;;;;1.03;78.14;101291.94;4983785;28;19950;-90
2022/01/23 20:32:31;;;;;;;;;;;;;;;1.01;77.88;101292.78;4985440;28;20329;-90
2022/01/23 20:34:58;;;;;;;;;;;;;;;1.02;77.78;101297.13;4987409;28;19930;-85
2022/01/23 20:37:23;;;;;;;;;;;;;;;1.04;77.79;101298.94;4984824;28;19918;-85
2022/01/23 20:39:49;;;;;;;;;;;;;;;1.06;77.48;101297.22;4983500;28;19985;-85
2022/01/23 20:42:14;;;;;;;;;;;;;;;1.02;77.48;101294.53;4986482;28;20000;-85
2022/01/23 20:44:40;;;;;;;;;;;;;;;1.00;77.27;101297.09;4984928;28;20660;-85
2022/01/23 20:47:05;;;;;;;;;;;;;;;0.99;77.28;101295.38;4984919;28;19925;-86
2022/01/23 20:49:31;;;;;;;;;;;;;;;1.02;77.31;101295.44;4986322;28;19925;-86
2022/01/23 20:52:04;;;;;;;;;;;;;;;1.00;77.33;101296.22;4985084;28;19922;-91
2022/01/23 20:54:30;;;;;;;;;;;;;;;1.03;77.15;101298.91;4982579;28;20318;-86
2022/01/23 20:56:55;;;;;;;;;;;;;;;1.09;76.85;101291.19;4983645;28;20022;-86
2022/01/23 20:59:20;;;;;;;;;;;;;;;1.05;76.84;101298.09;4980916;28;19980;-87
2022/01/23 21:01:46;;;;;;;;;;;;;;;1.09;76.91;101301.66;4983301;28;20392;-86
2022/01/23 21:04:11;;;;;;;;;;;;;;;1.13;76.42;101303.44;4979826;28;20000;-88
2022/01/23 21:06:39;;;;;;;;;;;;;;;1.12;76.29;101304.31;4965670;28;20397;-88
2022/01/23 21:09:05;;;;;;;;;;;;;;;1.13;76.32;101299.97;4981809;28;19921;-89
2022/01/23 21:11:30;;;;;;;;;;;;;;;1.16;76.41;101311.34;4965541;28;20262;-85
2022/01/23 21:14:04;;;;;;;;;;;;;;;1.14;76.11;101304.34;4978834;28;19945;-88
2022/01/23 21:22:44;;;;;;;;;;;;;;;1.10;75.68;101306.00;4983681;28;19925;-88
2022/01/23 21:40:35;;;;;;;;;;;;;;;1.18;75.49;101300.94;4967068;28;20281;-88
2022/01/23 21:43:00;;;;;;;;;;;;;;;1.18;75.47;101296.63;4978987;28;19926;-88
2022/01/23 21:45:25;;;;;;;;;;;;;;;1.18;75.30;101300.94;4983998;28;19977;-87
2022/01/23 21:47:51;;;;;;;;;;;;;;;1.18;75.39;101301.84;4977202;28;20048;-87
2022/01/23 21:50:16;;;;;;;;;;;;;;;1.22;75.36;101303.63;4984380;28;19918;-86
2022/01/23 21:52:41;;;;;;;;;;;;;;;1.21;75.32;101298.38;4983831;28;19921;-87
2022/01/23 21:55:07;;;;;;;;;;;;;;;1.22;75.14;101297.53;4981660;28;19949;-87
2022/01/23 21:57:32;;;;;;;;;;;;;;;1.21;74.96;101299.28;4985227;28;19918;-87
2022/01/23 21:59:57;;;;;;;;;;;;;;;1.19;74.68;101293.13;4966309;28;20365;-87
2022/01/23 22:02:23;;;;;;;;;;;;;;;1.22;74.60;101290.59;4965409;28;19944;-85
2022/01/23 22:04:48;;;;;;;;;;;;;;;1.20;74.76;101294.03;4982881;28;19918;-86
2022/01/23 22:07:13;;;;;;;;;;;;;;;1.22;74.89;101290.59;4984317;28;20382;-93
2022/01/23 22:09:49;;;;;;;;;;;;;;;1.23;74.58;101287.13;4982257;28;19972;-92
2022/01/23 22:17:36;;;;;;;;;;;;;;;1.29;74.62;101282.88;4980664;28;20436;-86
2022/01/23 22:20:07;;;;;;;;;;;;;;;1.31;74.55;101283.78;4981687;28;19925;-90
2022/01/23 22:22:56;;;;;;;;;;;;;;;1.30;74.59;101284.63;4983240;28;20009;-87
2022/01/23 22:28:02;;;;;;;;;;;;;;;1.29;74.26;101282.88;4983348;28;19925;-86
2022/01/23 22:30:27;;;;;;;;;;;;;;;1.32;74.13;101282.94;4956985;28;19926;-86
2022/01/23 22:32:53;;;;;;;;;;;;;;;1.34;74.12;101282.13;4980586;28;20004;-86
2022/01/23 22:35:18;;;;;;;;;;;;;;;1.33;73.94;101277.72;4983560;28;20000;-90
2022/01/23 22:37:48;;;;;;;;;;;;;;;1.30;73.96;101279.41;4982519;28;19918;-85
2022/01/23 22:40:13;;;;;;;;;;;;;;;1.34;73.94;101278.59;4963936;28;19957;-87
2022/01/23 22:42:43;;;;;;;;;;;;;;;1.36;73.79;101274.31;4983147;28;19918;-87
2022/01/23 22:45:27;;;;;;;;;;;;;;;1.37;73.70;101278.66;4982003;28;19913;-88
2022/01/23 22:47:52;;;;;;;;;;;;;;;1.41;73.83;101277.88;4984092;28;19925;-92
2022/01/23 22:50:17;;;;;;;;;;;;;;;1.41;73.70;101278.75;4968083;28;20373;-86
2022/01/23 22:52:43;;;;;;;;;;;;;;;1.46;73.62;101276.22;4983572;28;20002;-93
2022/01/23 22:55:08;;;;;;;;;;;;;;;1.40;73.69;101273.50;4981261;28;19922;-86
2022/01/23 22:57:34;;;;;;;;;;;;;;;1.46;73.54;101276.22;4983718;28;20354;-85
2022/01/23 22:59:59;;;;;;;;;;;;;;;1.41;73.61;101283.09;4983503;28;20433;-93
2022/01/23 23:02:25;;;;;;;;;;;;;;;1.44;73.53;101284.03;4984298;28;19981;-92
2022/01/23 23:04:50;;;;;;;;;;;;;;;1.48;73.30;101279.75;4981967;28;20013;-86
2022/01/23 23:07:15;;;;;;;;;;;;;;;1.48;73.50;101279.75;4986502;28;20348;-85
2022/01/23 23:09:40;;;;;;;;;;;;;;;1.48;73.42;101281.47;4982396;28;19922;-92
2022/01/23 23:12:06;;;;;;;;;;;;;;;1.47;73.48;101283.22;4985538;28;20008;-93
2022/01/23 23:14:35;;;;;;;;;;;;;;;1.56;73.37;101283.38;4983179;28;19917;-93
2022/01/23 23:17:02;;;;;;;;;;;;;;;1.55;73.30;101281.63;4985564;28;20356;-89
2022/01/23 23:19:29;;;;;;;;;;;;;;;1.52;73.28;101281.56;4981024;28;19922;-86
2022/01/23 23:21:54;;;;;;;;;;;;;;;1.49;73.50;101281.50;4982966;28;19919;-90
2022/01/23 23:24:24;;;;;;;;;;;;;;;1.58;73.56;101276.47;4981026;28;20289;-93
2022/01/23 23:26:52;;;;;;;;;;;;;;;1.56;73.26;101275.53;4980065;28;19925;-94
2022/01/23 23:29:17;;;;;;;;;;;;;;;1.59;73.10;101275.59;4981852;28;19990;-93
2022/01/23 23:31:43;;;;;;;;;;;;;;;1.55;72.96;101276.41;4985918;28;19964;-92
2022/01/23 23:34:08;;;;;;;;;;;;;;;1.57;72.98;101277.28;4981896;28;19914;-85
2022/01/23 23:36:34;;;;;;;;;;;;;;;1.58;72.91;101280.78;4983817;28;19926;-93
2022/01/23 23:38:59;;;;;;;;;;;;;;;1.59;72.91;101283.41;4979201;28;19914;-85
2022/01/23 23:41:39;;;;;;;;;;;;;;;1.58;72.87;101272.94;4979170;28;19924;-89
2022/01/23 23:44:10;;;;;;;;;;;;;;;1.62;72.40;101275.63;4985773;28;19922;-87
2022/01/23 23:46:39;;;;;;;;;;;;;;;1.65;72.41;101268.72;4982319;28;19921;-86
2022/01/23 23:49:11;;;;;;;;;;;;;;;1.62;72.45;101265.19;4984982;28;19918;-85
2022/01/23 23:51:38;;;;;;;;;;;;;;;1.62;72.56;101264.31;4982708;28;19926;-85
2022/01/23 23:54:04;;;;;;;;;;;;;;;1.66;72.60;101263.53;4980959;28;19928;-93
2022/01/23 23:56:29;;;;;;;;;;;;;;;1.65;72.54;101264.38;4982668;28;19922;-85
2022/01/23 23:58:55;;;;;;;;;;;;;;;1.70;72.24;101264.44;4963895;28;20373;-90
